sensor_id;sensor_type;location;lat;lon;timestamp;temperature;humidity
32366;DHT22;18837;46.832;16.838;2023-05-07T00:00:46;17.90;86.30
32366;DHT22;18837;46.832;16.838;2023-05-07T00:03:12;17.80;86.60
32366;DHT22;18837;46.832;16.838;2023-05-07T00:05:39;17.80;86.40
32366;DHT22;18837;46.832;16.838;2023-05-07T00:08:08;17.80;86.40
32366;DHT22;18837;46.832;16.838;2023-05-07T00:10:36;17.80;86.60
32366;DHT22;18837;46.832;16.838;2023-05-07T00:13:03;17.80;86.70
32366;DHT22;18837;46.832;16.838;2023-05-07T00:15:29;17.80;86.60
32366;DHT22;18837;46.832;16.838;2023-05-07T00:17:55;17.80;86.00
32366;DHT22;18837;46.832;16.838;2023-05-07T00:20:21;17.70;86.50
32366;DHT22;18837;46.832;16.838;2023-05-07T00:22:47;17.70;86.40
32366;DHT22;18837;46.832;16.838;2023-05-07T00:25:12;17.70;86.60
32366;DHT22;18837;46.832;16.838;2023-05-07T00:27:43;17.70;86.70
32366;DHT22;18837;46.832;16.838;2023-05-07T00:30:09;17.70;86.90
32366;DHT22;18837;46.832;16.838;2023-05-07T00:32:35;17.70;86.20
32366;DHT22;18837;46.832;16.838;2023-05-07T00:35:02;17.70;86.60
32366;DHT22;18837;46.832;16.838;2023-05-07T00:37:28;17.90;87.30
32366;DHT22;18837;46.832;16.838;2023-05-07T00:39:53;17.70;86.60
32366;DHT22;18837;46.832;16.838;2023-05-07T00:42:24;17.60;86.40
32366;DHT22;18837;46.832;16.838;2023-05-07T00:44:50;17.60;87.00
32366;DHT22;18837;46.832;16.838;2023-05-07T00:47:16;17.60;86.70
32366;DHT22;18837;46.832;16.838;2023-05-07T00:49:43;17.60;86.70
32366;DHT22;18837;46.832;16.838;2023-05-07T00:52:11;17.60;87.00
32366;DHT22;18837;46.832;16.838;2023-05-07T00:54:38;17.60;87.00
32366;DHT22;18837;46.832;16.838;2023-05-07T00:57:05;17.60;86.90
32366;DHT22;18837;46.832;16.838;2023-05-07T00:59:32;17.50;86.90
32366;DHT22;18837;46.832;16.838;2023-05-07T01:01:58;17.50;86.60
32366;DHT22;18837;46.832;16.838;2023-05-07T01:04:24;17.50;87.00
32366;DHT22;18837;46.832;16.838;2023-05-07T01:06:51;17.50;87.00
32366;DHT22;18837;46.832;16.838;2023-05-07T01:09:19;17.50;87.00
32366;DHT22;18837;46.832;16.838;2023-05-07T01:11:46;17.50;86.90
32366;DHT22;18837;46.832;16.838;2023-05-07T01:14:12;17.50;87.00
32366;DHT22;18837;46.832;16.838;2023-05-07T01:16:43;17.50;87.00
32366;DHT22;18837;46.832;16.838;2023-05-07T01:19:16;17.50;87.20
32366;DHT22;18837;46.832;16.838;2023-05-07T01:22:03;17.50;87.50
32366;DHT22;18837;46.832;16.838;2023-05-07T01:24:31;17.40;87.10
32366;DHT22;18837;46.832;16.838;2023-05-07T01:26:57;17.40;87.20
32366;DHT22;18837;46.832;16.838;2023-05-07T01:29:22;17.40;87.20
32366;DHT22;18837;46.832;16.838;2023-05-07T01:31:50;17.40;86.80
32366;DHT22;18837;46.832;16.838;2023-05-07T01:34:17;17.40;87.20
32366;DHT22;18837;46.832;16.838;2023-05-07T01:36:54;17.40;87.20
32366;DHT22;18837;46.832;16.838;2023-05-07T01:39:24;17.40;87.40
32366;DHT22;18837;46.832;16.838;2023-05-07T01:41:50;17.40;87.30
32366;DHT22;18837;46.832;16.838;2023-05-07T01:44:16;17.40;87.00
32366;DHT22;18837;46.832;16.838;2023-05-07T01:46:43;17.30;87.10
32366;DHT22;18837;46.832;16.838;2023-05-07T01:49:10;17.30;87.40
32366;DHT22;18837;46.832;16.838;2023-05-07T01:51:45;17.30;87.00
32366;DHT22;18837;46.832;16.838;2023-05-07T01:54:27;17.30;87.00
32366;DHT22;18837;46.832;16.838;2023-05-07T01:57:06;17.30;87.20
32366;DHT22;18837;46.832;16.838;2023-05-07T01:59:32;17.30;87.30
32366;DHT22;18837;46.832;16.838;2023-05-07T02:01:57;17.20;87.30
32366;DHT22;18837;46.832;16.838;2023-05-07T02:04:23;17.20;87.30
32366;DHT22;18837;46.832;16.838;2023-05-07T02:06:50;17.20;87.50
32366;DHT22;18837;46.832;16.838;2023-05-07T02:09:15;17.20;87.20
32366;DHT22;18837;46.832;16.838;2023-05-07T02:11:46;17.20;87.50
32366;DHT22;18837;46.832;16.838;2023-05-07T02:14:12;17.20;87.50
32366;DHT22;18837;46.832;16.838;2023-05-07T02:16:38;17.20;87.30
32366;DHT22;18837;46.832;16.838;2023-05-07T02:19:03;17.20;87.40
32366;DHT22;18837;46.832;16.838;2023-05-07T02:21:29;17.20;87.50
32366;DHT22;18837;46.832;16.838;2023-05-07T02:23:55;17.20;87.30
32366;DHT22;18837;46.832;16.838;2023-05-07T02:26:39;17.10;87.00
32366;DHT22;18837;46.832;16.838;2023-05-07T02:29:12;17.10;87.30
32366;DHT22;18837;46.832;16.838;2023-05-07T02:31:43;17.10;87.50
32366;DHT22;18837;46.832;16.838;2023-05-07T02:34:09;17.20;87.30
32366;DHT22;18837;46.832;16.838;2023-05-07T02:36:34;17.10;87.50
32366;DHT22;18837;46.832;16.838;2023-05-07T02:39:00;17.10;87.20
32366;DHT22;18837;46.832;16.838;2023-05-07T02:41:26;17.10;87.50
32366;DHT22;18837;46.832;16.838;2023-05-07T02:43:53;17.10;87.70
32366;DHT22;18837;46.832;16.838;2023-05-07T02:46:25;17.10;87.70
32366;DHT22;18837;46.832;16.838;2023-05-07T02:48:51;17.10;87.60
32366;DHT22;18837;46.832;16.838;2023-05-07T02:51:20;17.10;87.20
32366;DHT22;18837;46.832;16.838;2023-05-07T02:53:46;17.00;87.70
32366;DHT22;18837;46.832;16.838;2023-05-07T02:56:12;17.00;87.60
32366;DHT22;18837;46.832;16.838;2023-05-07T02:58:38;17.00;87.60
32366;DHT22;18837;46.832;16.838;2023-05-07T03:01:25;17.00;87.00
32366;DHT22;18837;46.832;16.838;2023-05-07T03:03:55;17.00;87.60
32366;DHT22;18837;46.832;16.838;2023-05-07T03:06:28;17.00;87.70
32366;DHT22;18837;46.832;16.838;2023-05-07T03:08:54;17.00;87.50
32366;DHT22;18837;46.832;16.838;2023-05-07T03:11:20;17.00;87.60
32366;DHT22;18837;46.832;16.838;2023-05-07T03:13:46;16.90;87.70
32366;DHT22;18837;46.832;16.838;2023-05-07T03:16:12;16.90;88.00
32366;DHT22;18837;46.832;16.838;2023-05-07T03:18:37;16.90;87.80
32366;DHT22;18837;46.832;16.838;2023-05-07T03:21:08;16.90;87.80
32366;DHT22;18837;46.832;16.838;2023-05-07T03:23:34;16.90;87.80
32366;DHT22;18837;46.832;16.838;2023-05-07T03:26:00;16.90;87.70
32366;DHT22;18837;46.832;16.838;2023-05-07T03:28:26;16.90;87.70
32366;DHT22;18837;46.832;16.838;2023-05-07T03:30:51;16.90;88.00
32366;DHT22;18837;46.832;16.838;2023-05-07T03:33:17;16.90;87.80
32366;DHT22;18837;46.832;16.838;2023-05-07T03:36:03;16.90;87.80
32366;DHT22;18837;46.832;16.838;2023-05-07T03:38:51;16.90;86.60
32366;DHT22;18837;46.832;16.838;2023-05-07T03:41:17;16.90;86.80
32366;DHT22;18837;46.832;16.838;2023-05-07T03:43:43;16.90;87.80
32366;DHT22;18837;46.832;16.838;2023-05-07T03:46:09;16.80;87.90
32366;DHT22;18837;46.832;16.838;2023-05-07T03:48:34;16.90;88.40
32366;DHT22;18837;46.832;16.838;2023-05-07T03:51:00;16.80;87.90
32366;DHT22;18837;46.832;16.838;2023-05-07T03:53:26;16.80;88.10
32366;DHT22;18837;46.832;16.838;2023-05-07T03:55:57;16.90;88.10
32366;DHT22;18837;46.832;16.838;2023-05-07T03:58:22;16.80;88.00
32366;DHT22;18837;46.832;16.838;2023-05-07T04:00:48;16.80;87.80
32366;DHT22;18837;46.832;16.838;2023-05-07T04:03:14;16.80;87.80
32366;DHT22;18837;46.832;16.838;2023-05-07T04:05:40;16.80;88.20
32366;DHT22;18837;46.832;16.838;2023-05-07T04:08:06;16.80;87.70
32366;DHT22;18837;46.832;16.838;2023-05-07T04:10:43;16.80;88.30
32366;DHT22;18837;46.832;16.838;2023-05-07T04:13:21;16.80;87.80
32366;DHT22;18837;46.832;16.838;2023-05-07T04:15:47;16.80;88.00
32366;DHT22;18837;46.832;16.838;2023-05-07T04:18:14;16.80;87.70
32366;DHT22;18837;46.832;16.838;2023-05-07T04:20:40;16.80;88.00
32366;DHT22;18837;46.832;16.838;2023-05-07T04:23:07;16.80;87.60
32366;DHT22;18837;46.832;16.838;2023-05-07T04:25:32;16.70;87.60
32366;DHT22;18837;46.832;16.838;2023-05-07T04:27:58;16.80;88.00
32366;DHT22;18837;46.832;16.838;2023-05-07T04:30:27;16.70;88.30
32366;DHT22;18837;46.832;16.838;2023-05-07T04:32:52;16.70;88.00
32366;DHT22;18837;46.832;16.838;2023-05-07T04:35:18;16.70;87.80
32366;DHT22;18837;46.832;16.838;2023-05-07T04:37:44;16.70;88.60
32366;DHT22;18837;46.832;16.838;2023-05-07T04:40:10;16.70;88.10
32366;DHT22;18837;46.832;16.838;2023-05-07T04:42:36;16.70;87.90
32366;DHT22;18837;46.832;16.838;2023-05-07T04:45:04;16.70;87.80
32366;DHT22;18837;46.832;16.838;2023-05-07T04:47:32;16.70;87.80
32366;DHT22;18837;46.832;16.838;2023-05-07T04:50:04;16.70;88.10
32366;DHT22;18837;46.832;16.838;2023-05-07T04:52:30;16.70;87.70
32366;DHT22;18837;46.832;16.838;2023-05-07T04:54:58;16.70;87.90
32366;DHT22;18837;46.832;16.838;2023-05-07T04:57:24;16.70;88.20
32366;DHT22;18837;46.832;16.838;2023-05-07T04:59:50;16.70;88.30
32366;DHT22;18837;46.832;16.838;2023-05-07T05:02:16;16.70;88.10
32366;DHT22;18837;46.832;16.838;2023-05-07T05:04:42;16.70;88.10
32366;DHT22;18837;46.832;16.838;2023-05-07T05:07:07;16.70;88.00
32366;DHT22;18837;46.832;16.838;2023-05-07T05:09:33;16.70;88.20
32366;DHT22;18837;46.832;16.838;2023-05-07T05:11:59;16.70;87.80
32366;DHT22;18837;46.832;16.838;2023-05-07T05:14:25;16.70;88.30
32366;DHT22;18837;46.832;16.838;2023-05-07T05:16:51;16.70;88.40
32366;DHT22;18837;46.832;16.838;2023-05-07T05:19:19;16.70;88.20
32366;DHT22;18837;46.832;16.838;2023-05-07T05:21:45;16.70;88.30
32366;DHT22;18837;46.832;16.838;2023-05-07T05:24:11;16.70;88.40
32366;DHT22;18837;46.832;16.838;2023-05-07T05:26:37;16.70;88.40
32366;DHT22;18837;46.832;16.838;2023-05-07T05:29:02;16.70;89.10
32366;DHT22;18837;46.832;16.838;2023-05-07T05:31:29;16.70;88.20
32366;DHT22;18837;46.832;16.838;2023-05-07T05:33:55;16.70;88.00
32366;DHT22;18837;46.832;16.838;2023-05-07T05:36:33;16.70;88.30
32366;DHT22;18837;46.832;16.838;2023-05-07T05:39:04;16.70;88.20
32366;DHT22;18837;46.832;16.838;2023-05-07T05:41:30;16.70;88.30
32366;DHT22;18837;46.832;16.838;2023-05-07T05:43:56;16.70;88.00
32366;DHT22;18837;46.832;16.838;2023-05-07T05:46:22;16.70;88.00
32366;DHT22;18837;46.832;16.838;2023-05-07T05:48:47;16.70;88.30
32366;DHT22;18837;46.832;16.838;2023-05-07T05:51:13;16.70;88.40
32366;DHT22;18837;46.832;16.838;2023-05-07T05:53:39;16.70;88.70
32366;DHT22;18837;46.832;16.838;2023-05-07T05:56:05;16.70;88.40
32366;DHT22;18837;46.832;16.838;2023-05-07T05:58:31;16.70;88.00
32366;DHT22;18837;46.832;16.838;2023-05-07T06:00:57;16.70;88.30
32366;DHT22;18837;46.832;16.838;2023-05-07T06:03:23;16.70;88.70
32366;DHT22;18837;46.832;16.838;2023-05-07T06:05:49;16.70;88.20
32366;DHT22;18837;46.832;16.838;2023-05-07T06:08:15;16.80;88.20
32366;DHT22;18837;46.832;16.838;2023-05-07T06:10:59;16.80;88.40
32366;DHT22;18837;46.832;16.838;2023-05-07T06:13:26;16.80;88.50
32366;DHT22;18837;46.832;16.838;2023-05-07T06:15:52;16.80;88.40
32366;DHT22;18837;46.832;16.838;2023-05-07T06:18:17;16.80;88.40
32366;DHT22;18837;46.832;16.838;2023-05-07T06:20:43;16.80;88.30
32366;DHT22;18837;46.832;16.838;2023-05-07T06:23:09;16.80;88.30
32366;DHT22;18837;46.832;16.838;2023-05-07T06:26:12;16.90;88.20
32366;DHT22;18837;46.832;16.838;2023-05-07T06:28:44;16.90;87.50
32366;DHT22;18837;46.832;16.838;2023-05-07T06:31:17;16.90;88.30
32366;DHT22;18837;46.832;16.838;2023-05-07T06:33:46;16.90;87.60
32366;DHT22;18837;46.832;16.838;2023-05-07T06:36:12;16.90;88.40
32366;DHT22;18837;46.832;16.838;2023-05-07T06:38:38;16.90;88.20
32366;DHT22;18837;46.832;16.838;2023-05-07T06:41:05;16.90;88.60
32366;DHT22;18837;46.832;16.838;2023-05-07T06:43:51;16.90;88.40
32366;DHT22;18837;46.832;16.838;2023-05-07T06:46:18;16.90;87.50
32366;DHT22;18837;46.832;16.838;2023-05-07T06:48:44;16.90;88.20
32366;DHT22;18837;46.832;16.838;2023-05-07T06:51:10;16.90;88.40
32366;DHT22;18837;46.832;16.838;2023-05-07T06:53:35;17.00;88.30
32366;DHT22;18837;46.832;16.838;2023-05-07T06:56:04;17.00;88.50
32366;DHT22;18837;46.832;16.838;2023-05-07T06:58:48;17.00;87.90
32366;DHT22;18837;46.832;16.838;2023-05-07T07:01:39;17.00;88.30
32366;DHT22;18837;46.832;16.838;2023-05-07T07:04:05;17.00;87.60
32366;DHT22;18837;46.832;16.838;2023-05-07T07:06:31;17.00;87.90
32366;DHT22;18837;46.832;16.838;2023-05-07T07:08:58;17.00;87.90
32366;DHT22;18837;46.832;16.838;2023-05-07T07:11:24;17.10;88.50
32366;DHT22;18837;46.832;16.838;2023-05-07T07:13:50;17.10;88.90
32366;DHT22;18837;46.832;16.838;2023-05-07T07:16:16;17.10;89.00
32366;DHT22;18837;46.832;16.838;2023-05-07T07:18:54;17.10;88.80
32366;DHT22;18837;46.832;16.838;2023-05-07T07:21:20;17.10;88.60
32366;DHT22;18837;46.832;16.838;2023-05-07T07:23:45;17.10;88.70
32366;DHT22;18837;46.832;16.838;2023-05-07T07:26:11;17.10;88.40
32366;DHT22;18837;46.832;16.838;2023-05-07T07:28:42;17.10;88.30
32366;DHT22;18837;46.832;16.838;2023-05-07T07:31:09;17.20;88.50
32366;DHT22;18837;46.832;16.838;2023-05-07T07:33:57;17.20;88.50
32366;DHT22;18837;46.832;16.838;2023-05-07T07:36:22;17.20;87.70
32366;DHT22;18837;46.832;16.838;2023-05-07T07:38:54;17.20;88.40
32366;DHT22;18837;46.832;16.838;2023-05-07T07:41:20;17.30;88.70
32366;DHT22;18837;46.832;16.838;2023-05-07T07:43:46;17.30;88.70
32366;DHT22;18837;46.832;16.838;2023-05-07T07:46:12;17.30;88.30
32366;DHT22;18837;46.832;16.838;2023-05-07T07:48:38;17.40;88.70
32366;DHT22;18837;46.832;16.838;2023-05-07T07:51:04;17.30;88.70
32366;DHT22;18837;46.832;16.838;2023-05-07T07:53:30;17.40;88.60
32366;DHT22;18837;46.832;16.838;2023-05-07T07:55:56;17.50;89.50
32366;DHT22;18837;46.832;16.838;2023-05-07T07:58:22;17.50;88.80
32366;DHT22;18837;46.832;16.838;2023-05-07T08:00:48;17.50;89.40
32366;DHT22;18837;46.832;16.838;2023-05-07T08:03:14;17.50;89.40
32366;DHT22;18837;46.832;16.838;2023-05-07T08:05:42;17.60;89.60
32366;DHT22;18837;46.832;16.838;2023-05-07T08:08:08;17.60;90.70
32366;DHT22;18837;46.832;16.838;2023-05-07T08:10:34;17.70;91.70
32366;DHT22;18837;46.832;16.838;2023-05-07T08:13:04;17.80;91.80
32366;DHT22;18837;46.832;16.838;2023-05-07T08:15:30;17.80;91.80
32366;DHT22;18837;46.832;16.838;2023-05-07T08:17:56;17.90;91.80
32366;DHT22;18837;46.832;16.838;2023-05-07T08:20:23;17.90;91.60
32366;DHT22;18837;46.832;16.838;2023-05-07T08:22:58;18.00;91.50
32366;DHT22;18837;46.832;16.838;2023-05-07T08:25:23;18.00;91.20
32366;DHT22;18837;46.832;16.838;2023-05-07T08:27:49;18.10;91.00
32366;DHT22;18837;46.832;16.838;2023-05-07T08:30:15;18.10;91.00
32366;DHT22;18837;46.832;16.838;2023-05-07T08:32:41;18.20;91.20
32366;DHT22;18837;46.832;16.838;2023-05-07T08:35:07;18.20;91.30
32366;DHT22;18837;46.832;16.838;2023-05-07T08:37:33;18.30;91.40
32366;DHT22;18837;46.832;16.838;2023-05-07T08:43:21;18.40;91.00
32366;DHT22;18837;46.832;16.838;2023-05-07T08:45:53;18.40;90.60
32366;DHT22;18837;46.832;16.838;2023-05-07T08:48:22;18.50;90.20
32366;DHT22;18837;46.832;16.838;2023-05-07T08:50:50;18.50;90.20
32366;DHT22;18837;46.832;16.838;2023-05-07T08:53:17;18.50;90.30
32366;DHT22;18837;46.832;16.838;2023-05-07T08:55:43;18.50;90.30
32366;DHT22;18837;46.832;16.838;2023-05-07T08:58:15;18.60;90.00
32366;DHT22;18837;46.832;16.838;2023-05-07T09:00:41;18.60;90.30
32366;DHT22;18837;46.832;16.838;2023-05-07T09:03:07;18.60;90.20
32366;DHT22;18837;46.832;16.838;2023-05-07T09:05:33;18.70;90.90
32366;DHT22;18837;46.832;16.838;2023-05-07T09:08:00;18.80;90.50
32366;DHT22;18837;46.832;16.838;2023-05-07T09:10:27;18.90;90.40
32366;DHT22;18837;46.832;16.838;2023-05-07T09:12:53;18.90;89.80
32366;DHT22;18837;46.832;16.838;2023-05-07T09:15:37;19.00;89.40
32366;DHT22;18837;46.832;16.838;2023-05-07T09:18:15;19.10;89.10
32366;DHT22;18837;46.832;16.838;2023-05-07T09:20:41;19.10;89.00
32366;DHT22;18837;46.832;16.838;2023-05-07T09:23:08;19.10;89.50
32366;DHT22;18837;46.832;16.838;2023-05-07T09:25:35;19.20;88.90
32366;DHT22;18837;46.832;16.838;2023-05-07T09:28:03;19.20;88.10
32366;DHT22;18837;46.832;16.838;2023-05-07T09:30:33;19.20;88.20
32366;DHT22;18837;46.832;16.838;2023-05-07T09:33:05;19.20;88.00
32366;DHT22;18837;46.832;16.838;2023-05-07T09:35:30;19.30;88.20
32366;DHT22;18837;46.832;16.838;2023-05-07T09:37:59;19.30;88.20
32366;DHT22;18837;46.832;16.838;2023-05-07T09:40:27;19.30;88.70
32366;DHT22;18837;46.832;16.838;2023-05-07T09:42:53;19.40;89.40
32366;DHT22;18837;46.832;16.838;2023-05-07T09:45:28;19.40;90.00
32366;DHT22;18837;46.832;16.838;2023-05-07T09:48:05;19.50;89.50
32366;DHT22;18837;46.832;16.838;2023-05-07T09:50:51;19.50;88.80
32366;DHT22;18837;46.832;16.838;2023-05-07T09:53:20;19.60;88.30
32366;DHT22;18837;46.832;16.838;2023-05-07T09:55:47;19.60;89.30
32366;DHT22;18837;46.832;16.838;2023-05-07T09:58:14;19.70;88.70
32366;DHT22;18837;46.832;16.838;2023-05-07T10:00:40;19.70;88.20
32366;DHT22;18837;46.832;16.838;2023-05-07T10:03:08;19.70;88.10
32366;DHT22;18837;46.832;16.838;2023-05-07T10:05:35;19.80;88.20
32366;DHT22;18837;46.832;16.838;2023-05-07T10:08:10;19.80;88.50
32366;DHT22;18837;46.832;16.838;2023-05-07T10:10:37;19.80;88.70
32366;DHT22;18837;46.832;16.838;2023-05-07T10:13:03;19.80;87.50
32366;DHT22;18837;46.832;16.838;2023-05-07T10:15:35;19.80;87.70
32366;DHT22;18837;46.832;16.838;2023-05-07T10:18:03;19.80;88.70
32366;DHT22;18837;46.832;16.838;2023-05-07T10:20:29;19.80;87.40
32366;DHT22;18837;46.832;16.838;2023-05-07T10:23:23;19.80;87.90
32366;DHT22;18837;46.832;16.838;2023-05-07T10:29:02;19.80;88.30
32366;DHT22;18837;46.832;16.838;2023-05-07T10:33:56;19.90;87.60
32366;DHT22;18837;46.832;16.838;2023-05-07T10:36:23;19.90;87.20
32366;DHT22;18837;46.832;16.838;2023-05-07T10:38:50;19.90;88.00
32366;DHT22;18837;46.832;16.838;2023-05-07T10:41:32;19.90;86.70
32366;DHT22;18837;46.832;16.838;2023-05-07T10:43:58;19.90;86.60
32366;DHT22;18837;46.832;16.838;2023-05-07T10:46:26;19.90;86.30
32366;DHT22;18837;46.832;16.838;2023-05-07T10:51:29;19.90;86.20
32366;DHT22;18837;46.832;16.838;2023-05-07T11:00:05;19.90;87.50
32366;DHT22;18837;46.832;16.838;2023-05-07T11:03:11;20.00;87.20
32366;DHT22;18837;46.832;16.838;2023-05-07T11:05:37;20.00;86.80
32366;DHT22;18837;46.832;16.838;2023-05-07T11:08:04;20.00;85.90
32366;DHT22;18837;46.832;16.838;2023-05-07T11:10:50;20.00;87.30
32366;DHT22;18837;46.832;16.838;2023-05-07T11:13:16;20.00;86.60
32366;DHT22;18837;46.832;16.838;2023-05-07T11:15:45;20.00;87.00
32366;DHT22;18837;46.832;16.838;2023-05-07T11:18:17;20.00;87.10
32366;DHT22;18837;46.832;16.838;2023-05-07T11:20:54;20.10;86.60
32366;DHT22;18837;46.832;16.838;2023-05-07T11:28:27;20.20;85.60
32366;DHT22;18837;46.832;16.838;2023-05-07T11:30:54;20.20;88.20
32366;DHT22;18837;46.832;16.838;2023-05-07T11:36:45;20.30;84.90
32366;DHT22;18837;46.832;16.838;2023-05-07T11:39:24;20.40;84.70
32366;DHT22;18837;46.832;16.838;2023-05-07T11:41:50;20.40;85.00
32366;DHT22;18837;46.832;16.838;2023-05-07T11:44:16;20.40;85.20
32366;DHT22;18837;46.832;16.838;2023-05-07T11:46:45;20.40;84.00
32366;DHT22;18837;46.832;16.838;2023-05-07T11:49:11;20.40;83.90
32366;DHT22;18837;46.832;16.838;2023-05-07T11:51:49;20.40;84.00
32366;DHT22;18837;46.832;16.838;2023-05-07T11:54:16;20.40;85.00
32366;DHT22;18837;46.832;16.838;2023-05-07T11:56:42;20.40;85.00
32366;DHT22;18837;46.832;16.838;2023-05-07T11:59:09;20.40;84.80
32366;DHT22;18837;46.832;16.838;2023-05-07T12:01:35;20.40;84.40
32366;DHT22;18837;46.832;16.838;2023-05-07T12:04:03;20.40;85.40
32366;DHT22;18837;46.832;16.838;2023-05-07T12:06:44;20.40;85.60
32366;DHT22;18837;46.832;16.838;2023-05-07T12:12:38;20.40;83.90
32366;DHT22;18837;46.832;16.838;2023-05-07T12:15:05;20.30;84.50
32366;DHT22;18837;46.832;16.838;2023-05-07T12:17:31;20.30;84.30
32366;DHT22;18837;46.832;16.838;2023-05-07T12:19:57;20.30;84.50
32366;DHT22;18837;46.832;16.838;2023-05-07T12:22:23;20.30;84.30
32366;DHT22;18837;46.832;16.838;2023-05-07T12:24:56;20.30;85.10
32366;DHT22;18837;46.832;16.838;2023-05-07T12:27:44;20.30;85.90
32366;DHT22;18837;46.832;16.838;2023-05-07T12:30:10;20.30;84.80
32366;DHT22;18837;46.832;16.838;2023-05-07T12:32:37;20.30;84.30
32366;DHT22;18837;46.832;16.838;2023-05-07T12:35:03;20.30;85.20
32366;DHT22;18837;46.832;16.838;2023-05-07T12:37:28;20.20;84.90
32366;DHT22;18837;46.832;16.838;2023-05-07T12:40:11;20.20;85.60
32366;DHT22;18837;46.832;16.838;2023-05-07T12:46:09;20.20;85.00
32366;DHT22;18837;46.832;16.838;2023-05-07T12:48:43;20.20;85.50
32366;DHT22;18837;46.832;16.838;2023-05-07T12:51:09;20.20;85.70
32366;DHT22;18837;46.832;16.838;2023-05-07T12:53:40;20.10;85.30
32366;DHT22;18837;46.832;16.838;2023-05-07T12:56:07;20.20;85.80
32366;DHT22;18837;46.832;16.838;2023-05-07T12:58:34;20.20;86.50
32366;DHT22;18837;46.832;16.838;2023-05-07T13:01:10;20.20;86.40
32366;DHT22;18837;46.832;16.838;2023-05-07T13:03:40;20.20;86.00
32366;DHT22;18837;46.832;16.838;2023-05-07T13:06:10;20.30;85.20
32366;DHT22;18837;46.832;16.838;2023-05-07T13:08:39;20.30;85.80
32366;DHT22;18837;46.832;16.838;2023-05-07T13:11:07;20.40;85.40
32366;DHT22;18837;46.832;16.838;2023-05-07T14:30:08;21.30;82.80
32366;DHT22;18837;46.832;16.838;2023-05-07T14:32:34;21.30;82.30
32366;DHT22;18837;46.832;16.838;2023-05-07T14:35:00;21.30;81.80
32366;DHT22;18837;46.832;16.838;2023-05-07T14:37:26;21.40;82.60
32366;DHT22;18837;46.832;16.838;2023-05-07T14:39:52;21.30;84.10
32366;DHT22;18837;46.832;16.838;2023-05-07T14:42:18;21.30;83.30
32366;DHT22;18837;46.832;16.838;2023-05-07T14:44:49;21.30;85.50
32366;DHT22;18837;46.832;16.838;2023-05-07T14:47:15;21.30;84.90
32366;DHT22;18837;46.832;16.838;2023-05-07T14:49:41;21.30;83.70
32366;DHT22;18837;46.832;16.838;2023-05-07T14:52:07;21.30;84.10
32366;DHT22;18837;46.832;16.838;2023-05-07T14:54:38;21.30;81.40
32366;DHT22;18837;46.832;16.838;2023-05-07T14:57:05;21.30;82.20
32366;DHT22;18837;46.832;16.838;2023-05-07T15:03:06;21.30;83.60
32366;DHT22;18837;46.832;16.838;2023-05-07T15:05:37;21.30;81.60
32366;DHT22;18837;46.832;16.838;2023-05-07T15:08:03;21.30;83.80
32366;DHT22;18837;46.832;16.838;2023-05-07T15:10:29;21.30;84.00
32366;DHT22;18837;46.832;16.838;2023-05-07T15:12:55;21.30;82.40
32366;DHT22;18837;46.832;16.838;2023-05-07T15:15:20;21.30;81.80
32366;DHT22;18837;46.832;16.838;2023-05-07T15:18:11;21.20;81.20
32366;DHT22;18837;46.832;16.838;2023-05-07T15:20:40;21.20;80.60
32366;DHT22;18837;46.832;16.838;2023-05-07T15:23:07;21.20;80.50
32366;DHT22;18837;46.832;16.838;2023-05-07T15:25:40;21.10;80.60
32366;DHT22;18837;46.832;16.838;2023-05-07T15:28:05;21.10;80.60
32366;DHT22;18837;46.832;16.838;2023-05-07T15:30:31;21.00;80.60
32366;DHT22;18837;46.832;16.838;2023-05-07T15:32:57;21.00;80.70
32366;DHT22;18837;46.832;16.838;2023-05-07T15:35:47;20.90;80.70
32366;DHT22;18837;46.832;16.838;2023-05-07T15:38:31;20.90;81.10
32366;DHT22;18837;46.832;16.838;2023-05-07T15:40:57;20.90;81.30
32366;DHT22;18837;46.832;16.838;2023-05-07T15:43:23;20.80;81.20
32366;DHT22;18837;46.832;16.838;2023-05-07T15:45:50;20.80;81.50
32366;DHT22;18837;46.832;16.838;2023-05-07T15:48:16;20.70;81.50
32366;DHT22;18837;46.832;16.838;2023-05-07T15:50:42;20.80;82.20
32366;DHT22;18837;46.832;16.838;2023-05-07T15:53:08;20.70;82.20
32366;DHT22;18837;46.832;16.838;2023-05-07T15:55:34;20.70;82.10
32366;DHT22;18837;46.832;16.838;2023-05-07T15:58:00;20.60;81.80
32366;DHT22;18837;46.832;16.838;2023-05-07T16:00:27;20.60;82.00
32366;DHT22;18837;46.832;16.838;2023-05-07T16:02:53;20.60;82.10
32366;DHT22;18837;46.832;16.838;2023-05-07T16:05:19;20.60;82.10
32366;DHT22;18837;46.832;16.838;2023-05-07T16:08:07;20.60;82.30
32366;DHT22;18837;46.832;16.838;2023-05-07T16:10:32;20.50;82.10
32366;DHT22;18837;46.832;16.838;2023-05-07T16:12:58;20.50;82.10
32366;DHT22;18837;46.832;16.838;2023-05-07T16:15:24;20.50;82.10
32366;DHT22;18837;46.832;16.838;2023-05-07T16:17:50;20.50;82.10
32366;DHT22;18837;46.832;16.838;2023-05-07T16:20:16;20.40;82.90
32366;DHT22;18837;46.832;16.838;2023-05-07T16:22:57;20.40;82.00
32366;DHT22;18837;46.832;16.838;2023-05-07T16:28:52;20.40;82.20
32366;DHT22;18837;46.832;16.838;2023-05-07T16:31:18;20.40;82.10
32366;DHT22;18837;46.832;16.838;2023-05-07T16:33:46;20.30;81.80
32366;DHT22;18837;46.832;16.838;2023-05-07T16:36:12;20.30;82.00
32366;DHT22;18837;46.832;16.838;2023-05-07T16:38:38;20.30;82.10
32366;DHT22;18837;46.832;16.838;2023-05-07T16:41:04;20.20;82.00
32366;DHT22;18837;46.832;16.838;2023-05-07T16:43:32;20.30;82.00
32366;DHT22;18837;46.832;16.838;2023-05-07T16:45:58;20.20;81.90
32366;DHT22;18837;46.832;16.838;2023-05-07T16:48:25;20.20;81.90
32366;DHT22;18837;46.832;16.838;2023-05-07T16:50:51;20.20;82.10
32366;DHT22;18837;46.832;16.838;2023-05-07T16:53:17;20.20;82.20
32366;DHT22;18837;46.832;16.838;2023-05-07T16:55:42;20.20;82.20
32366;DHT22;18837;46.832;16.838;2023-05-07T16:58:23;20.10;82.00
32366;DHT22;18837;46.832;16.838;2023-05-07T17:00:50;20.10;82.30
32366;DHT22;18837;46.832;16.838;2023-05-07T17:03:16;20.10;82.40
32366;DHT22;18837;46.832;16.838;2023-05-07T17:05:42;20.10;82.70
32366;DHT22;18837;46.832;16.838;2023-05-07T17:08:08;20.10;82.40
32366;DHT22;18837;46.832;16.838;2023-05-07T17:10:34;20.10;82.80
32366;DHT22;18837;46.832;16.838;2023-05-07T17:16:41;20.10;82.30
32366;DHT22;18837;46.832;16.838;2023-05-07T17:19:07;20.00;82.70
32366;DHT22;18837;46.832;16.838;2023-05-07T17:21:32;20.00;82.70
32366;DHT22;18837;46.832;16.838;2023-05-07T17:23:58;20.00;83.10